Time;durP1;ratioP1;P1;durP2;ratioP2;P2;SDS_P1;SDS_P2;PMS_P1;PMS_P2;Temp;Humidity;BMP_temperature;BMP_pressure;BME280_temperature;BME280_humidity;BME280_pressure;Samples;Min_cycle;Max_cycle;Signal;HPM_P1;HPM_P2
2022/03/07 00:00:44;;;;;;;13.25;8.00;;;2.50;70.50;;;;;;4866750;29;20331;-78
2022/03/07 00:03:10;;;;;;;12.40;8.40;;;2.50;70.80;;;;;;4866908;29;20070;-79
2022/03/07 00:05:36;;;;;;;11.40;8.02;;;2.50;70.60;;;;;;4876138;29;20036;-79
2022/03/07 00:08:07;;;;;;;11.70;8.07;;;2.40;70.90;;;;;;4941673;29;20274;-78
2022/03/07 00:10:36;;;;;;;12.75;8.02;;;2.30;71.10;;;;;;4924458;29;20035;-79
2022/03/07 00:13:12;;;;;;;12.75;8.82;;;2.30;72.00;;;;;;4911259;29;20024;-80
2022/03/07 01:24:11;;;;;;;;;;;;;;;;;;;;;
2022/03/07 01:34:42;;;;;;;10.15;6.93;;;1.50;76.00;;;;;;4925904;29;20064;-79
2022/03/07 01:37:18;;;;;;;;;;;1.50;74.70;;;;;;4910435;29;20032;-79
2022/03/07 01:39:51;;;;;;;10.50;7.28;;;1.50;75.10;;;;;;4910102;29;19907;-79
2022/03/07 01:43:21;;;;;;;9.45;6.70;;;1.50;75.00;;;;;;4925414;29;20025;-77
2022/03/07 01:50:47;;;;;;;10.52;7.13;;;1.30;75.50;;;;;;4760591;30;20108;-79
2022/03/07 01:53:54;;;;;;;10.38;6.80;;;1.20;76.00;;;;;;4745873;30;20103;-79
2022/03/07 01:56:46;;;;;;;;;;;;;;;;;;;;;
2022/03/07 02:03:11;;;;;;;10.10;5.72;;;1.10;77.40;;;;;;4778485;30;20104;-79
2022/03/07 02:05:46;;;;;;;10.75;6.88;;;1.10;77.00;;;;;;4748105;30;20036;-79
2022/03/07 02:17:32;;;;;;;10.10;6.82;;;0.90;76.20;;;;;;4741416;30;20066;-79
2022/03/07 02:21:13;;;;;;;11.30;7.15;;;0.70;76.60;;;;;;4714661;30;20034;-79
2022/03/07 02:24:33;;;;;;;10.60;7.65;;;0.70;76.00;;;;;;4706737;30;20225;-80
2022/03/07 02:28:25;;;;;;;9.80;6.57;;;0.60;76.30;;;;;;4765845;30;20053;-78
2022/03/07 02:31:52;;;;;;;10.13;6.70;;;0.60;76.40;;;;;;4777342;30;20161;-79
2022/03/07 02:34:43;;;;;;;10.20;7.05;;;0.50;76.40;;;;;;4777571;30;20349;-79
2022/03/07 02:37:10;;;;;;;12.00;7.50;;;0.30;77.10;;;;;;4777588;30;20207;-80
2022/03/07 02:39:44;;;;;;;11.77;7.28;;;0.30;77.00;;;;;;4791320;30;20031;-80
2022/03/07 02:42:12;;;;;;;12.10;7.38;;;0.30;76.80;;;;;;4780574;30;20405;-80
2022/03/07 02:44:39;;;;;;;13.77;7.80;;;0.30;77.10;;;;;;4795148;30;20039;-80
2022/03/07 02:47:05;;;;;;;10.30;7.38;;;0.20;77.20;;;;;;4815555;29;20045;-78
2022/03/07 02:49:31;;;;;;;10.05;6.97;;;0.20;77.30;;;;;;4852254;29;20069;-79
2022/03/07 02:52:03;;;;;;;11.60;6.75;;;0.10;77.70;;;;;;4867848;29;20064;-77
2022/03/07 02:54:29;;;;;;;11.25;7.07;;;0.00;78.10;;;;;;4867413;29;20025;-79
2022/03/07 02:56:55;;;;;;;10.48;6.97;;;-0.10;78.70;;;;;;4876510;29;20331;-78
2022/03/07 02:59:21;;;;;;;9.93;6.85;;;-0.20;79.40;;;;;;4905609;29;20047;-79
2022/03/07 03:01:48;;;;;;;11.40;7.40;;;-0.30;79.80;;;;;;4890781;29;20032;-78
2022/03/07 03:04:14;;;;;;;10.48;6.90;;;-0.30;80.90;;;;;;4890055;29;20028;-78
2022/03/07 03:06:41;;;;;;;12.30;7.10;;;-0.40;81.10;;;;;;4896509;29;20083;-78
2022/03/07 03:09:07;;;;;;;11.38;7.75;;;-0.40;81.40;;;;;;4925876;29;20036;-78
2022/03/07 03:11:33;;;;;;;12.25;7.47;;;-0.50;81.00;;;;;;4924293;29;20047;-79
2022/03/07 03:13:59;;;;;;;11.80;7.80;;;-0.50;80.70;;;;;;4924885;29;20020;-80
2022/03/07 03:24:45;;;;;;;;;;;;;;;;;;;;;
2022/03/07 03:27:32;;;;;;;10.82;7.32;;;-0.70;82.30;;;;;;4920357;29;20357;-78
2022/03/07 03:30:35;;;;;;;11.95;7.60;;;-0.70;82.50;;;;;;4918167;29;20028;-79
2022/03/07 03:33:36;;;;;;;13.70;7.68;;;-0.80;83.10;;;;;;4920696;29;20055;-79
2022/03/07 03:40:23;;;;;;;12.07;6.65;;;-0.80;83.30;;;;;;4887158;29;20052;-78
2022/03/07 03:43:32;;;;;;;;;;;;;;;;;;;;;
2022/03/07 03:46:08;;;;;;;9.75;7.03;;;-0.80;83.40;;;;;;4904662;29;20198;-78
2022/03/07 03:49:14;;;;;;;11.20;7.55;;;-0.80;82.90;;;;;;4888371;29;20032;-78
2022/03/07 04:02:52;;;;;;;13.90;8.38;;;-1.00;81.50;;;;;;4923954;29;20067;-77
2022/03/07 04:05:18;;;;;;;14.50;8.27;;;-1.00;81.60;;;;;;4924079;29;20319;-78
2022/03/07 04:07:50;;;;;;;13.50;8.80;;;-1.00;81.70;;;;;;4923539;29;20338;-78
2022/03/07 04:10:16;;;;;;;12.98;8.27;;;-1.00;81.80;;;;;;4924015;29;20222;-77
2022/03/07 04:12:42;;;;;;;13.43;9.00;;;-1.10;81.50;;;;;;4913671;29;20028;-77
2022/03/07 04:15:09;;;;;;;15.50;8.13;;;-1.10;81.70;;;;;;4923852;29;20032;-78
2022/03/07 04:17:44;;;;;;;12.93;8.55;;;-1.10;81.80;;;;;;4907422;29;20072;-77
2022/03/07 04:20:10;;;;;;;16.55;8.75;;;-1.20;81.60;;;;;;4926883;29;20028;-78
2022/03/07 04:22:37;;;;;;;16.40;9.55;;;-1.30;81.70;;;;;;4928224;29;20032;-78
2022/03/07 04:25:04;;;;;;;13.98;9.45;;;-1.30;82.00;;;;;;4927480;29;20024;-78
2022/03/07 04:27:30;;;;;;;15.07;9.45;;;-1.30;82.00;;;;;;4927383;29;20052;-78
2022/03/07 04:29:57;;;;;;;15.55;10.15;;;-1.30;81.90;;;;;;4931319;29;20035;-78
2022/03/07 04:32:23;;;;;;;14.82;9.38;;;-1.30;82.60;;;;;;4928640;29;20075;-79
2022/03/07 04:34:49;;;;;;;15.18;9.15;;;-1.30;82.10;;;;;;4927338;29;20295;-78
2022/03/07 04:37:15;;;;;;;17.48;9.90;;;-1.30;82.10;;;;;;4927710;29;20058;-78
2022/03/07 04:39:41;;;;;;;16.73;10.35;;;-1.30;82.30;;;;;;4926971;29;20028;-78
2022/03/07 04:42:06;;;;;;;15.90;9.90;;;-1.20;82.40;;;;;;4911458;29;20031;-78
2022/03/07 04:44:32;;;;;;;15.70;10.30;;;-1.20;82.30;;;;;;4926697;29;20046;-79
2022/03/07 04:46:58;;;;;;;16.95;10.38;;;-1.10;82.40;;;;;;4928437;29;20087;-78
2022/03/07 04:49:24;;;;;;;15.15;9.95;;;-1.10;82.30;;;;;;4927090;29;20036;-79
2022/03/07 04:51:49;;;;;;;16.25;9.82;;;-1.10;82.70;;;;;;4908515;29;20035;-82
2022/03/07 04:54:15;;;;;;;15.73;9.70;;;-1.10;82.80;;;;;;4926676;29;20080;-78
2022/03/07 04:56:47;;;;;;;18.25;10.65;;;-1.10;82.90;;;;;;4927348;29;20350;-78
2022/03/07 04:59:14;;;;;;;17.83;10.85;;;-1.10;82.80;;;;;;4927179;29;20036;-80
2022/03/07 05:01:49;;;;;;;15.40;9.60;;;-1.00;82.80;;;;;;4910902;29;20238;-79
2022/03/07 05:04:14;;;;;;;17.88;10.63;;;-0.90;83.10;;;;;;4928398;29;20034;-79
2022/03/07 05:06:40;;;;;;;16.15;10.43;;;-1.00;82.70;;;;;;4927660;29;20252;-80
2022/03/07 05:09:06;;;;;;;18.45;10.85;;;-0.90;82.70;;;;;;4928242;29;20298;-79
2022/03/07 05:11:32;;;;;;;16.70;10.88;;;-0.90;82.90;;;;;;4930108;29;20032;-78
2022/03/07 05:13:58;;;;;;;17.98;10.88;;;-0.90;83.10;;;;;;4930733;29;20024;-78
2022/03/07 05:16:23;;;;;;;20.25;10.75;;;-0.90;83.10;;;;;;4929047;29;20066;-79
2022/03/07 05:18:49;;;;;;;16.90;10.32;;;-0.90;83.30;;;;;;4928979;29;20028;-80
2022/03/07 05:21:18;;;;;;;16.73;10.88;;;-0.80;83.20;;;;;;4928009;29;20286;-79
2022/03/07 05:23:44;;;;;;;;;;;-0.90;83.20;;;;;;4927075;29;20064;-79
2022/03/07 05:26:09;;;;;;;16.67;10.48;;;-0.90;83.40;;;;;;4926840;29;19907;-78
2022/03/07 05:28:35;;;;;;;18.77;10.90;;;-0.90;83.70;;;;;;4927644;29;20074;-79
2022/03/07 05:31:01;;;;;;;19.85;10.73;;;-1.00;84.00;;;;;;4926344;29;20028;-79
2022/03/07 05:33:27;;;;;;;17.38;10.38;;;-1.00;84.20;;;;;;4927906;29;20078;-78
2022/03/07 05:39:49;;;;;;;17.02;10.88;;;-1.00;84.80;;;;;;4927316;29;20035;-77
2022/03/07 06:06:41;;;;;;;17.65;10.25;;;-1.10;86.70;;;;;;4927571;29;20102;-77
2022/03/07 06:09:12;;;;;;;19.88;10.95;;;-1.10;87.00;;;;;;4946636;29;20036;-77
2022/03/07 06:11:38;;;;;;;16.92;10.02;;;-1.10;86.90;;;;;;4922902;29;20080;-76
2022/03/07 06:14:04;;;;;;;16.73;10.90;;;-1.10;87.00;;;;;;4926592;29;20023;-78
2022/03/07 06:16:32;;;;;;;18.42;10.35;;;-1.00;86.80;;;;;;4927406;29;20304;-79
2022/03/07 06:19:10;;;;;;;;;;;-1.00;86.90;;;;;;4928122;29;20032;-78
2022/03/07 06:21:36;;;;;;;17.20;10.32;;;-0.80;86.40;;;;;;4927135;29;20134;-78
2022/03/07 06:24:11;;;;;;;16.10;9.60;;;-0.80;85.60;;;;;;4926059;29;20031;-78
2022/03/07 06:26:40;;;;;;;19.05;10.38;;;-0.80;85.70;;;;;;4926937;29;20083;-78
2022/03/07 06:29:06;;;;;;;17.17;9.85;;;-0.80;86.00;;;;;;4927376;29;20330;-78
2022/03/07 06:31:32;;;;;;;15.43;9.73;;;-0.70;85.20;;;;;;4926691;29;20047;-79
2022/03/07 06:33:58;;;;;;;17.30;9.50;;;-0.70;85.40;;;;;;4925734;29;20034;-78
2022/03/07 06:36:27;;;;;;;16.58;9.50;;;-0.70;85.00;;;;;;4927080;29;20258;-78
2022/03/07 06:38:53;;;;;;;16.10;9.07;;;-0.60;85.40;;;;;;4926991;29;20036;-78
2022/03/07 06:41:18;;;;;;;13.75;9.40;;;-0.60;85.20;;;;;;4926182;29;20214;-78
2022/03/07 06:43:44;;;;;;;17.95;10.05;;;-0.60;84.90;;;;;;4925894;29;20039;-79
2022/03/07 06:46:10;;;;;;;16.48;9.40;;;-0.60;85.10;;;;;;4925894;29;20047;-79
2022/03/07 06:48:36;;;;;;;17.05;9.05;;;-0.60;85.10;;;;;;4926229;29;20051;-79
2022/03/07 06:51:04;;;;;;;13.70;9.32;;;-0.60;85.10;;;;;;4924384;29;23283;-78
2022/03/07 06:53:43;;;;;;;13.07;8.52;;;-0.60;84.70;;;;;;4909906;29;20035;-78
2022/03/07 06:59:37;;;;;;;14.70;8.77;;;-0.40;84.40;;;;;;4925817;29;20092;-78
2022/03/07 07:02:03;;;;;;;14.00;9.02;;;-0.40;84.00;;;;;;4926413;29;20378;-78
2022/03/07 07:04:28;;;;;;;13.00;8.32;;;-0.30;83.70;;;;;;4927315;29;20061;-78
2022/03/07 07:06:54;;;;;;;17.00;9.13;;;-0.30;83.30;;;;;;4926374;29;20091;-78
2022/03/07 07:09:20;;;;;;;15.98;9.15;;;-0.30;83.50;;;;;;4926284;29;20028;-78
2022/03/07 07:11:46;;;;;;;16.00;8.95;;;-0.30;83.30;;;;;;4926242;29;20032;-78
2022/03/07 07:14:33;;;;;;;15.90;8.55;;;-0.30;82.90;;;;;;4927178;29;20028;-78
2022/03/07 07:17:03;;;;;;;14.07;8.18;;;-0.30;82.90;;;;;;4924855;29;20126;-79
2022/03/07 07:19:32;;;;;;;14.38;8.43;;;-0.20;82.60;;;;;;4914329;29;20095;-78
2022/03/07 07:22:00;;;;;;;15.90;7.88;;;-0.10;82.70;;;;;;4927718;29;20032;-80
2022/03/07 07:24:26;;;;;;;13.38;8.27;;;-0.10;82.50;;;;;;4901571;29;20168;-79
2022/03/07 07:26:55;;;;;;;15.38;8.93;;;0.00;82.50;;;;;;4918175;29;20031;-79
2022/03/07 07:29:39;;;;;;;14.02;8.20;;;0.20;82.40;;;;;;4918189;29;20043;-80
2022/03/07 07:32:09;;;;;;;12.23;8.40;;;0.30;82.10;;;;;;4905866;29;20044;-79
2022/03/07 07:42:18;;;;;;;19.25;8.98;;;0.80;80.80;;;;;;4918676;29;20020;-80
2022/03/07 07:44:54;;;;;;;13.90;8.40;;;0.90;79.80;;;;;;4923005;29;20043;-79
2022/03/07 07:47:22;;;;;;;14.55;8.50;;;0.90;79.30;;;;;;4897044;29;20024;-79
2022/03/07 07:49:53;;;;;;;13.38;8.82;;;1.00;79.00;;;;;;4905492;29;20028;-79
2022/03/07 07:52:28;;;;;;;11.63;8.10;;;0.90;78.80;;;;;;4904482;29;20064;-79
2022/03/07 07:54:59;;;;;;;18.55;9.32;;;1.10;79.20;;;;;;4906493;29;20085;-77
2022/03/07 07:57:25;;;;;;;13.82;9.02;;;1.30;78.20;;;;;;4927598;29;20087;-77
2022/03/07 09:04:12;;;;;;;12.75;7.72;;;3.40;67.50;;;;;;4864756;29;20020;-80
2022/03/07 10:57:02;;;;;;;13.18;8.38;;;8.20;57.30;;;;;;4947073;29;20206;-80
2022/03/07 10:59:44;;;;;;;18.98;8.85;;;8.40;55.80;;;;;;4897052;29;20044;-79
2022/03/07 11:02:14;;;;;;;13.85;8.75;;;8.70;55.80;;;;;;4941314;29;20040;-79
2022/03/07 11:05:14;;;;;;;12.65;9.05;;;8.60;55.30;;;;;;4945087;29;20040;-80
2022/03/07 11:08:14;;;;;;;12.95;8.77;;;8.00;56.10;;;;;;4928761;29;20326;-82
2022/03/07 11:13:37;;;;;;;13.35;8.60;;;8.00;57.50;;;;;;4945191;29;20098;-81
2022/03/07 11:16:32;;;;;;;11.20;8.77;;;8.80;56.00;;;;;;4915530;29;20051;-79
2022/03/07 11:18:59;;;;;;;11.70;8.52;;;9.80;53.80;;;;;;4939193;29;20043;-80
2022/03/07 11:22:08;;;;;;;9.77;7.88;;;10.00;52.60;;;;;;4928802;29;20107;-79
2022/03/07 11:24:44;;;;;;;13.05;8.90;;;9.80;52.70;;;;;;4928427;29;20078;-81
2022/03/07 11:28:15;;;;;;;13.90;9.00;;;9.60;53.40;;;;;;4934906;29;20059;-79
2022/03/07 11:31:26;;;;;;;11.25;8.60;;;8.90;54.80;;;;;;4946541;29;20046;-80
2022/03/07 11:37:47;;;;;;;13.15;9.35;;;7.80;56.10;;;;;;4942464;29;20051;-80
2022/03/07 11:40:58;;;;;;;12.98;8.85;;;7.50;57.10;;;;;;4928820;29;20039;-79
2022/03/07 11:44:01;;;;;;;10.93;8.30;;;7.40;57.50;;;;;;4943795;29;20031;-79
2022/03/07 11:46:54;;;;;;;10.55;7.82;;;7.60;56.80;;;;;;4939052;29;20059;-80
2022/03/07 11:49:31;;;;;;;12.75;8.63;;;8.00;56.80;;;;;;4944420;29;20164;-79
2022/03/07 11:55:46;;;;;;;12.13;8.15;;;9.50;52.60;;;;;;4902247;29;20128;-78
2022/03/07 11:58:55;;;;;;;;;;;;;;;;;;;;;
2022/03/07 12:01:58;;;;;;;11.85;8.07;;;12.40;49.60;;;;;;4937221;29;20054;-80
2022/03/07 12:04:40;;;;;;;10.40;7.80;;;14.10;47.20;;;;;;4942963;29;20123;-80
2022/03/07 12:07:30;;;;;;;10.77;7.72;;;15.20;45.80;;;;;;4928838;29;20041;-80
2022/03/07 12:11:03;;;;;;;10.60;7.72;;;14.30;46.40;;;;;;4938834;29;20107;-80
2022/03/07 12:14:13;;;;;;;13.13;8.07;;;13.10;47.20;;;;;;4942482;29;20038;-80
2022/03/07 12:16:41;;;;;;;26.65;9.10;;;11.30;49.50;;;;;;4895941;29;20041;-81
2022/03/07 12:19:22;;;;;;;10.98;7.53;;;11.40;50.50;;;;;;4872793;29;20033;-80
2022/03/07 12:22:14;;;;;;;16.08;8.18;;;12.00;49.10;;;;;;4888542;29;20045;-80
2022/03/07 12:25:26;;;;;;;12.30;8.50;;;11.60;49.30;;;;;;4888693;29;20037;-80
2022/03/07 12:28:13;;;;;;;10.15;7.65;;;11.80;50.10;;;;;;4853698;29;20049;-79
2022/03/07 12:30:42;;;;;;;25.20;8.95;;;13.20;48.30;;;;;;4850998;29;20342;-81
2022/03/07 12:33:14;;;;;;;15.15;8.00;;;14.50;46.60;;;;;;4835442;29;20049;-82
2022/03/07 12:35:40;;;;;;;11.27;7.85;;;15.10;46.30;;;;;;4835999;29;20022;-81
2022/03/07 12:38:09;;;;;;;10.48;8.55;;;15.70;44.50;;;;;;4866461;29;20041;-81
2022/03/07 12:40:38;;;;;;;9.40;7.60;;;16.10;43.70;;;;;;4853433;29;20059;-80
2022/03/07 12:43:05;;;;;;;11.27;6.68;;;16.90;43.40;;;;;;4869985;29;20029;-81
2022/03/07 12:45:33;;;;;;;13.52;7.97;;;18.00;43.00;;;;;;4872834;29;20227;-82
2022/03/07 12:48:13;;;;;;;8.30;7.50;;;19.20;41.70;;;;;;4907862;29;20156;-81
2022/03/07 12:50:51;;;;;;;9.68;7.28;;;19.90;40.30;;;;;;4956084;29;20061;-79
2022/03/07 12:53:20;;;;;;;8.93;6.60;;;20.50;39.60;;;;;;4943445;29;20023;-81
2022/03/07 12:56:03;;;;;;;10.00;6.75;;;20.50;40.40;;;;;;4945865;29;20023;-81
2022/03/07 12:58:57;;;;;;;9.77;7.13;;;20.80;39.70;;;;;;4946239;29;20221;-80
2022/03/07 13:02:24;;;;;;;9.85;6.75;;;21.30;39.40;;;;;;4938473;29;20158;-81
2022/03/07 13:05:28;;;;;;;8.15;7.35;;;20.80;38.30;;;;;;4877621;29;20043;-80
2022/03/07 13:09:12;;;;;;;8.68;7.05;;;19.30;39.50;;;;;;4890363;29;20036;-81
2022/03/07 13:16:46;;;;;;;7.90;7.10;;;21.00;38.40;;;;;;4850234;29;20400;-81
2022/03/07 13:20:06;;;;;;;8.02;6.53;;;21.70;38.00;;;;;;4814202;29;20042;-80
2022/03/07 13:43:10;;;;;;;13.55;8.40;;;20.10;38.90;;;;;;4729354;30;20202;-80
2022/03/07 14:01:16;;;;;;;9.45;7.03;;;22.10;37.90;;;;;;4887796;29;20056;-80
2022/03/07 14:27:45;;;;;;;;;;;;;;;;;;;;;
2022/03/07 14:53:49;;;;;;;9.10;7.50;;;23.30;36.10;;;;;;4854949;29;20041;-81
2022/03/07 15:44:17;;;;;;;9.57;7.85;;;19.90;38.00;;;;;;4793831;29;20055;-80
2022/03/07 15:47:43;;;;;;;11.40;9.20;;;19.50;40.80;;;;;;4782980;29;20046;-81
2022/03/07 18:26:47;;;;;;;20.45;13.55;;;3.40;62.50;;;;;;3150643;23;20110;-80
2022/03/07 18:54:21;;;;;;;18.38;12.43;;;3.10;63.60;;;;;;4967135;28;20261;-80
2022/03/07 18:56:57;;;;;;;22.67;14.45;;;3.00;62.90;;;;;;4983286;28;20034;-79
2022/03/07 19:00:00;;;;;;;20.65;13.70;;;3.00;63.60;;;;;;4963626;28;20043;-79
2022/03/07 19:20:00;;;;;;;21.65;14.20;;;2.60;66.30;;;;;;5712815;23;20310;-78
2022/03/07 19:38:26;;;;;;;23.10;14.80;;;2.00;66.70;;;;;;4936592;29;20043;-77
2022/03/07 19:43:48;;;;;;;25.80;15.10;;;1.90;67.40;;;;;;4924336;29;20214;-77
2022/03/07 19:46:34;;;;;;;21.35;14.60;;;1.90;67.50;;;;;;4927047;29;20103;-79
2022/03/07 20:36:43;;;;;;;20.80;14.35;;;1.30;69.30;;;;;;4964230;28;20104;-79
2022/03/07 23:41:23;;;;;;;27.90;16.25;;;-1.00;79.80;;;;;;5073955;23;19927;-78
2022/03/07 23:43:49;;;;;;;28.85;16.80;;;-1.00;80.20;;;;;;4913908;29;20054;-78
2022/03/07 23:46:27;;;;;;;27.52;16.58;;;-1.00;80.00;;;;;;4943143;29;20027;-77
